Time;durP1;ratioP1;P1;durP2;ratioP2;P2;SDS_P1;SDS_P2;PMS_P1;PMS_P2;Temp;Humidity;BMP_temperature;BMP_pressure;BME280_temperature;BME280_humidity;BME280_pressure;Samples;Min_cycle;Max_cycle;Signal;HPM_P1;HPM_P2
2022/10/12 00:02:05;;;;;;;6.97;1.92;;;8.60;77.70;;;;;;4106923;28;20042;-83
2022/10/12 00:04:24;;;;;;;9.73;2.00;;;8.70;77.80;;;;;;4109421;28;20521;-83
2022/10/12 00:06:43;;;;;;;8.45;1.70;;;8.70;77.70;;;;;;4101413;28;20061;-84
2022/10/12 00:09:02;;;;;;;9.85;1.75;;;8.80;77.80;;;;;;4106770;28;20692;-83
2022/10/12 00:11:25;;;;;;;8.85;2.08;;;8.70;77.60;;;;;;4120921;28;20556;-84
2022/10/12 00:13:45;;;;;;;6.78;1.70;;;8.70;77.50;;;;;;4105677;28;20089;-84
2022/10/12 00:16:06;;;;;;;12.38;2.40;;;8.70;77.40;;;;;;4108909;28;20121;-84
2022/10/12 00:18:26;;;;;;;8.32;1.70;;;8.80;77.50;;;;;;4105873;28;20053;-84
2022/10/12 00:20:45;;;;;;;10.63;2.03;;;8.80;77.40;;;;;;4107876;28;20037;-83
2022/10/12 00:23:05;;;;;;;11.05;2.20;;;8.80;77.40;;;;;;4112277;28;20142;-84
2022/10/12 00:25:24;;;;;;;9.48;2.03;;;8.80;77.40;;;;;;4114670;28;20033;-84
2022/10/12 00:27:45;;;;;;;8.20;1.95;;;8.80;77.40;;;;;;4112990;28;20583;-84
2022/10/12 00:30:04;;;;;;;9.98;2.35;;;8.70;77.40;;;;;;4111761;28;20081;-84
2022/10/12 00:32:24;;;;;;;11.07;2.00;;;8.80;77.50;;;;;;4114869;28;20034;-84
2022/10/12 00:34:43;;;;;;;10.43;2.45;;;8.80;77.60;;;;;;4109097;28;20042;-84
2022/10/12 00:37:02;;;;;;;8.80;2.08;;;8.90;77.80;;;;;;4110792;28;20094;-84
2022/10/12 00:39:21;;;;;;;7.90;1.65;;;8.80;77.90;;;;;;4111016;28;20030;-84
2022/10/12 00:41:42;;;;;;;7.70;1.80;;;8.80;77.90;;;;;;4109223;28;20054;-84
2022/10/12 00:44:02;;;;;;;11.48;1.98;;;8.80;78.20;;;;;;4117537;28;20691;-84
2022/10/12 00:46:30;;;;;;;7.28;1.55;;;8.80;78.20;;;;;;4106925;28;20041;-84
2022/10/12 00:49:09;;;;;;;12.85;2.28;;;8.90;78.30;;;;;;4119853;28;20030;-83
2022/10/12 00:51:28;;;;;;;8.13;2.05;;;8.90;78.20;;;;;;4109571;28;20045;-83
2022/10/12 00:54:02;;;;;;;7.55;1.80;;;9.00;78.30;;;;;;4120934;28;20136;-84
2022/10/12 00:56:24;;;;;;;8.57;2.00;;;9.00;78.30;;;;;;4110243;28;20073;-84
2022/10/12 00:58:46;;;;;;;7.90;1.73;;;9.00;78.50;;;;;;4087914;28;20042;-84
2022/10/12 01:01:06;;;;;;;7.93;1.70;;;9.00;78.40;;;;;;4118943;28;20774;-83
2022/10/12 01:03:26;;;;;;;12.07;1.95;;;9.10;78.50;;;;;;4108123;28;20522;-83
2022/10/12 01:05:45;;;;;;;8.80;1.50;;;9.10;78.50;;;;;;4110795;28;20115;-84
2022/10/12 01:08:04;;;;;;;11.38;2.35;;;9.10;78.50;;;;;;4120058;28;20522;-84
2022/10/12 01:10:23;;;;;;;10.90;1.83;;;9.10;78.50;;;;;;4108333;28;20109;-84
2022/10/12 01:12:45;;;;;;;8.48;1.60;;;9.30;78.70;;;;;;4108187;28;20101;-83
2022/10/12 01:15:05;;;;;;;13.90;2.10;;;9.20;78.70;;;;;;4109461;28;20041;-84
2022/10/12 01:17:41;;;;;;;9.52;1.85;;;9.20;78.70;;;;;;4108340;28;20081;-84
2022/10/12 01:20:17;;;;;;;10.13;1.88;;;9.20;78.90;;;;;;4108058;28;20086;-83
2022/10/12 01:23:01;;;;;;;12.50;1.88;;;9.20;78.90;;;;;;4123754;28;20104;-84
2022/10/12 01:25:41;;;;;;;13.68;1.92;;;9.30;79.10;;;;;;4108427;28;20046;-84
2022/10/12 01:28:22;;;;;;;7.93;1.83;;;9.30;78.90;;;;;;4108507;28;20061;-84
2022/10/12 01:30:45;;;;;;;10.55;2.45;;;9.30;78.90;;;;;;4105373;28;20097;-84
2022/10/12 01:33:27;;;;;;;8.75;1.98;;;9.40;79.10;;;;;;4106630;28;20046;-84
2022/10/12 01:36:06;;;;;;;9.57;1.90;;;9.30;79.30;;;;;;4109892;28;20077;-84
2022/10/12 01:38:34;;;;;;;8.52;2.45;;;9.30;79.00;;;;;;4107963;28;20609;-84
2022/10/12 01:41:05;;;;;;;9.77;1.83;;;9.40;79.10;;;;;;4101321;28;20089;-85
2022/10/12 01:43:33;;;;;;;7.70;2.20;;;9.40;79.00;;;;;;4120330;28;20395;-84
2022/10/12 01:45:53;;;;;;;10.60;1.98;;;9.40;78.90;;;;;;4107492;28;20402;-84
2022/10/12 01:48:13;;;;;;;9.63;1.80;;;9.40;78.90;;;;;;4121188;28;20049;-84
2022/10/12 01:50:48;;;;;;;7.10;1.60;;;9.40;78.80;;;;;;4105827;28;21123;-84
2022/10/12 01:53:07;;;;;;;8.23;1.73;;;9.40;78.90;;;;;;4106218;28;20086;-85
2022/10/12 01:55:51;;;;;;;9.55;1.73;;;9.40;78.80;;;;;;4106373;28;20113;-84
2022/10/12 01:58:34;;;;;;;5.95;1.60;;;9.50;78.90;;;;;;4104728;28;20074;-84
2022/10/12 02:01:12;;;;;;;6.72;1.77;;;9.50;78.80;;;;;;4097742;28;20093;-84
2022/10/12 02:04:10;;;;;;;8.93;1.60;;;9.50;78.80;;;;;;4109130;28;20097;-84
2022/10/12 02:06:37;;;;;;;9.57;2.10;;;9.50;78.90;;;;;;4114631;28;20160;-84
2022/10/12 02:09:07;;;;;;;7.90;1.52;;;9.50;78.60;;;;;;4109404;28;20061;-84
2022/10/12 02:11:27;;;;;;;9.32;1.67;;;9.50;78.50;;;;;;4110941;28;20061;-85
2022/10/12 02:13:56;;;;;;;10.13;1.83;;;9.50;78.40;;;;;;4112471;28;20570;-84
2022/10/12 02:16:22;;;;;;;6.20;1.60;;;9.50;78.30;;;;;;4108256;28;20090;-83
2022/10/12 02:18:46;;;;;;;6.38;1.48;;;9.50;78.20;;;;;;4106501;28;20815;-84
2022/10/12 02:21:08;;;;;;;9.38;1.67;;;9.50;78.30;;;;;;4106673;28;20041;-84
2022/10/12 02:23:28;;;;;;;6.80;1.85;;;9.40;78.00;;;;;;4104181;28;20065;-84
2022/10/12 02:25:49;;;;;;;9.50;1.70;;;9.40;78.00;;;;;;4105701;28;20042;-84
2022/10/12 02:28:11;;;;;;;11.13;1.73;;;9.40;78.00;;;;;;4104435;28;20475;-84
2022/10/12 02:30:42;;;;;;;9.55;1.52;;;9.50;78.00;;;;;;4106684;28;20049;-84
2022/10/12 02:33:19;;;;;;;11.02;1.73;;;9.40;77.80;;;;;;4104508;28;20118;-84
2022/10/12 02:35:57;;;;;;;4.43;1.52;;;9.40;77.80;;;;;;4102187;28;20050;-85
2022/10/12 02:38:27;;;;;;;5.93;1.38;;;9.30;77.70;;;;;;4110534;28;20042;-84
2022/10/12 02:40:54;;;;;;;5.07;1.20;;;9.30;77.60;;;;;;4117054;28;20162;-85
2022/10/12 02:43:40;;;;;;;5.15;1.20;;;9.30;77.50;;;;;;4106310;28;20038;-84
2022/10/12 02:46:01;;;;;;;4.05;1.63;;;9.20;77.40;;;;;;4104929;28;20045;-86
2022/10/12 02:48:22;;;;;;;5.00;1.75;;;9.20;78.10;;;;;;4102583;28;20114;-86
2022/10/12 02:50:42;;;;;;;11.30;1.60;;;9.20;77.30;;;;;;4116623;28;20588;-85
2022/10/12 02:53:03;;;;;;;12.93;1.40;;;9.10;77.10;;;;;;4107603;28;20097;-85
2022/10/12 02:55:22;;;;;;;9.00;1.50;;;9.10;77.10;;;;;;4104541;28;20045;-84
2022/10/12 02:57:42;;;;;;;5.22;1.27;;;9.10;77.10;;;;;;4102625;28;20081;-84
2022/10/12 03:00:01;;;;;;;8.18;1.73;;;9.00;77.10;;;;;;4109828;28;20073;-86
2022/10/12 03:02:20;;;;;;;7.28;1.30;;;9.00;77.10;;;;;;4092211;28;20643;-84
2022/10/12 03:04:39;;;;;;;6.70;1.27;;;9.10;77.20;;;;;;4107045;28;20121;-84
2022/10/12 03:06:59;;;;;;;13.13;1.95;;;9.00;77.20;;;;;;4102562;28;20045;-85
2022/10/12 03:09:18;;;;;;;5.53;1.15;;;9.00;77.20;;;;;;4107129;28;20178;-85
2022/10/12 03:11:42;;;;;;;3.97;1.05;;;8.90;77.20;;;;;;4106660;28;20077;-84
2022/10/12 03:14:01;;;;;;;12.10;1.20;;;8.90;77.20;;;;;;4100305;28;20049;-84
2022/10/12 03:16:21;;;;;;;6.47;1.35;;;8.90;77.20;;;;;;4102176;28;20042;-84
2022/10/12 03:18:40;;;;;;;3.80;1.17;;;8.90;77.20;;;;;;4103526;28;20110;-84
2022/10/12 03:21:01;;;;;;;7.97;1.40;;;8.90;77.20;;;;;;4104468;28;20027;-85
2022/10/12 03:23:20;;;;;;;6.13;1.20;;;8.90;77.20;;;;;;4103144;28;20585;-84
2022/10/12 03:25:40;;;;;;;7.30;1.30;;;8.80;77.20;;;;;;4095093;28;20392;-84
2022/10/12 03:28:00;;;;;;;5.68;1.58;;;8.90;77.30;;;;;;4105648;28;20101;-84
2022/10/12 03:30:19;;;;;;;4.50;1.42;;;8.90;77.40;;;;;;4105651;28;20042;-85
2022/10/12 03:32:38;;;;;;;6.60;1.40;;;8.80;77.40;;;;;;4105283;28;20454;-85
2022/10/12 03:34:58;;;;;;;6.97;1.20;;;8.90;77.60;;;;;;4098414;28;20089;-85
2022/10/12 03:37:17;;;;;;;7.32;1.20;;;8.80;77.70;;;;;;4104023;28;20046;-84
2022/10/12 03:39:36;;;;;;;10.20;1.20;;;8.90;77.80;;;;;;4111741;28;20054;-84
2022/10/12 03:41:56;;;;;;;9.65;1.55;;;8.90;78.00;;;;;;4117193;28;20481;-84
2022/10/12 03:44:15;;;;;;;14.18;1.67;;;8.90;78.90;;;;;;4102912;28;20102;-85
2022/10/12 03:46:34;;;;;;;2.55;0.80;;;8.90;78.20;;;;;;4117222;28;20089;-84
2022/10/12 03:48:53;;;;;;;7.25;1.20;;;8.90;78.20;;;;;;4104052;28;20511;-85
2022/10/12 03:51:12;;;;;;;9.43;1.30;;;9.00;78.40;;;;;;4108495;28;20046;-84
2022/10/12 03:53:31;;;;;;;6.28;1.30;;;8.90;78.40;;;;;;4104497;28;20791;-85
2022/10/12 03:55:50;;;;;;;7.07;1.10;;;9.00;78.50;;;;;;4103122;28;20419;-84
2022/10/12 03:58:10;;;;;;;7.53;1.20;;;9.00;78.60;;;;;;4106013;28;20502;-85
2022/10/12 04:00:30;;;;;;;13.48;1.52;;;9.10;78.70;;;;;;4102435;28;20154;-84
2022/10/12 04:02:49;;;;;;;8.27;1.35;;;9.00;78.60;;;;;;4106887;28;20041;-84
2022/10/12 04:05:08;;;;;;;10.05;1.35;;;9.10;78.80;;;;;;4102955;28;20063;-83
2022/10/12 04:07:27;;;;;;;5.65;1.40;;;9.10;78.80;;;;;;4107478;28;20054;-84
2022/10/12 04:09:46;;;;;;;6.40;1.48;;;9.10;78.80;;;;;;4105313;28;20037;-83
2022/10/12 04:12:06;;;;;;;8.63;1.08;;;9.10;78.70;;;;;;4118083;28;20074;-84
2022/10/12 04:14:25;;;;;;;7.95;1.30;;;9.20;78.90;;;;;;4104706;28;20045;-84
2022/10/12 04:16:44;;;;;;;11.25;1.48;;;9.20;79.00;;;;;;4106942;28;20041;-84
2022/10/12 04:19:03;;;;;;;8.45;1.52;;;9.20;79.10;;;;;;4107250;28;20118;-84
2022/10/12 04:21:24;;;;;;;4.05;1.27;;;9.20;79.00;;;;;;4105482;28;20177;-84
2022/10/12 04:23:43;;;;;;;12.45;1.67;;;9.20;78.90;;;;;;4106150;28;20398;-84
2022/10/12 04:26:03;;;;;;;8.00;1.35;;;9.30;79.00;;;;;;4104726;28;20034;-84
2022/10/12 04:28:22;;;;;;;8.18;1.60;;;9.30;79.00;;;;;;4107291;28;20135;-84
2022/10/12 04:30:41;;;;;;;8.85;1.52;;;9.30;79.00;;;;;;4105412;28;20526;-83
2022/10/12 04:33:00;;;;;;;9.05;1.42;;;9.30;79.00;;;;;;4107676;28;20049;-84
2022/10/12 04:35:19;;;;;;;10.70;1.23;;;9.30;79.10;;;;;;4102631;28;20635;-84
2022/10/12 04:37:37;;;;;;;3.45;1.48;;;9.40;79.10;;;;;;4105689;28;20502;-85
2022/10/12 04:39:57;;;;;;;9.40;1.60;;;9.40;79.10;;;;;;4106011;28;20974;-84
2022/10/12 04:42:16;;;;;;;7.28;1.52;;;9.40;79.10;;;;;;4104153;28;20050;-84
2022/10/12 04:44:35;;;;;;;12.98;1.33;;;9.40;79.10;;;;;;4095506;28;20050;-85
2022/10/12 04:46:54;;;;;;;7.88;1.48;;;9.40;79.10;;;;;;4105788;28;20089;-85
2022/10/12 04:49:15;;;;;;;9.00;1.80;;;9.40;79.00;;;;;;4099704;28;23158;-85
2022/10/12 04:51:34;;;;;;;5.50;1.52;;;9.40;79.00;;;;;;4105339;28;20403;-84
2022/10/12 04:53:53;;;;;;;12.30;1.83;;;9.50;79.10;;;;;;4106216;28;20065;-84
2022/10/12 04:56:12;;;;;;;10.43;1.40;;;9.40;78.90;;;;;;4103500;28;20841;-85
2022/10/12 04:58:31;;;;;;;8.25;1.52;;;9.40;78.90;;;;;;4121012;28;20064;-84
2022/10/12 05:00:51;;;;;;;7.60;1.60;;;9.50;78.90;;;;;;4104785;28;20163;-84
2022/10/12 05:03:10;;;;;;;8.63;1.67;;;9.40;78.80;;;;;;4106126;28;20066;-85
2022/10/12 05:05:29;;;;;;;9.85;2.28;;;9.50;78.90;;;;;;4104810;28;20477;-84
2022/10/12 05:07:48;;;;;;;8.55;1.75;;;9.50;78.90;;;;;;4106655;28;20042;-85
2022/10/12 05:10:07;;;;;;;8.88;1.92;;;9.50;78.90;;;;;;4108960;28;20137;-85
2022/10/12 05:12:27;;;;;;;5.72;1.10;;;9.50;78.80;;;;;;4120941;28;20566;-85
2022/10/12 05:14:46;;;;;;;5.18;1.42;;;9.50;78.80;;;;;;4124372;28;20120;-85
2022/10/12 05:17:05;;;;;;;8.10;1.50;;;9.50;78.80;;;;;;4109338;28;20057;-85
2022/10/12 05:19:24;;;;;;;6.70;1.30;;;9.60;78.90;;;;;;4109429;28;20042;-84
2022/10/12 05:21:43;;;;;;;5.45;1.23;;;9.50;78.90;;;;;;4105373;28;20090;-85
2022/10/12 05:24:02;;;;;;;8.43;1.63;;;9.60;78.90;;;;;;4112526;28;20037;-85
2022/10/12 05:26:22;;;;;;;10.25;1.80;;;9.50;78.90;;;;;;4111656;28;20038;-85
2022/10/12 05:28:41;;;;;;;6.90;2.00;;;9.50;79.00;;;;;;4108591;28;20050;-85
2022/10/12 05:31:00;;;;;;;13.75;1.77;;;9.60;79.00;;;;;;4108525;28;20069;-86
2022/10/12 05:33:19;;;;;;;8.70;1.98;;;9.50;79.00;;;;;;4107952;28;20042;-85
2022/10/12 05:35:38;;;;;;;12.32;2.40;;;9.50;79.10;;;;;;4105378;28;20045;-85
2022/10/12 05:37:57;;;;;;;9.10;2.20;;;9.60;79.20;;;;;;4107153;28;20103;-84
2022/10/12 05:40:17;;;;;;;16.05;2.40;;;9.60;79.30;;;;;;4107062;28;20149;-84
2022/10/12 05:42:36;;;;;;;7.15;1.98;;;9.60;79.20;;;;;;4110543;28;20066;-85
2022/10/12 05:44:55;;;;;;;13.38;2.28;;;9.60;79.20;;;;;;4110251;28;20084;-84
2022/10/12 05:47:14;;;;;;;11.60;2.25;;;9.70;79.30;;;;;;4109221;28;20050;-84
2022/10/12 05:49:33;;;;;;;7.55;2.60;;;9.60;79.20;;;;;;4108243;28;20037;-84
2022/10/12 05:51:53;;;;;;;10.20;2.92;;;9.70;79.30;;;;;;4124502;28;20076;-84
2022/10/12 05:54:11;;;;;;;12.73;2.65;;;9.80;79.40;;;;;;4104170;28;20033;-84
2022/10/12 05:56:31;;;;;;;10.05;2.47;;;9.80;79.40;;;;;;4101584;28;20046;-85
2022/10/12 05:58:50;;;;;;;12.05;2.72;;;9.60;79.20;;;;;;4106084;28;20097;-85
2022/10/12 06:01:11;;;;;;;12.45;2.88;;;9.80;79.40;;;;;;4106672;28;20073;-84
2022/10/12 06:03:31;;;;;;;11.00;2.65;;;9.80;79.40;;;;;;4108512;28;20089;-84
2022/10/12 06:05:50;;;;;;;14.98;3.60;;;9.80;79.30;;;;;;4101052;28;20042;-82
2022/10/12 06:08:09;;;;;;;16.88;3.50;;;9.80;79.30;;;;;;4104952;28;20046;-84
2022/10/12 06:10:29;;;;;;;10.65;3.03;;;9.80;79.40;;;;;;4115743;28;20054;-83
2022/10/12 06:12:48;;;;;;;10.98;3.45;;;9.80;79.40;;;;;;4108274;28;21758;-83
2022/10/12 06:15:08;;;;;;;10.07;3.63;;;9.80;79.30;;;;;;4106819;28;20089;-84
2022/10/12 06:17:28;;;;;;;11.93;3.85;;;9.90;79.40;;;;;;4108141;28;20106;-83
2022/10/12 06:19:47;;;;;;;24.70;3.78;;;9.90;79.40;;;;;;4106919;28;20097;-84
2022/10/12 06:22:07;;;;;;;11.18;3.78;;;9.90;79.40;;;;;;4117146;28;20552;-85
2022/10/12 06:24:26;;;;;;;14.23;3.75;;;9.90;79.40;;;;;;4104328;28;20672;-83
2022/10/12 06:26:45;;;;;;;13.63;4.25;;;9.90;79.40;;;;;;4103530;28;20122;-84
2022/10/12 06:29:14;;;;;;;;;;;;;;;;;;;;;
2022/10/12 06:31:34;;;;;;;13.30;3.95;;;10.10;79.40;;;;;;4106493;28;20045;-84
2022/10/12 06:33:53;;;;;;;15.77;4.25;;;10.00;79.40;;;;;;4106368;28;20529;-84
2022/10/12 06:36:13;;;;;;;10.55;4.28;;;10.00;79.30;;;;;;4098524;28;20066;-84
2022/10/12 06:38:32;;;;;;;12.85;4.72;;;10.00;79.30;;;;;;4106721;28;20593;-83
2022/10/12 06:40:52;;;;;;;22.25;4.70;;;10.00;79.30;;;;;;4103411;28;20162;-83
2022/10/12 06:43:11;;;;;;;31.63;4.85;;;10.10;79.40;;;;;;4107061;28;20120;-84
2022/10/12 06:45:31;;;;;;;23.25;5.22;;;10.10;80.10;;;;;;4105916;28;20096;-84
2022/10/12 06:47:50;;;;;;;21.17;5.95;;;10.10;79.40;;;;;;4100786;28;20042;-81
2022/10/12 06:50:09;;;;;;;21.98;4.80;;;10.10;79.40;;;;;;4114428;28;20062;-84
2022/10/12 06:52:29;;;;;;;17.60;5.15;;;10.10;79.40;;;;;;4106656;28;20550;-85
2022/10/12 06:54:48;;;;;;;15.63;5.50;;;10.20;79.50;;;;;;4105768;28;20037;-84
2022/10/12 06:57:07;;;;;;;9.82;4.53;;;10.20;79.50;;;;;;4121124;28;20057;-85
2022/10/12 06:59:26;;;;;;;18.30;4.57;;;10.20;79.50;;;;;;4108611;28;20696;-85
2022/10/12 07:01:45;;;;;;;13.65;4.68;;;10.20;79.50;;;;;;4095566;28;20042;-85
2022/10/12 07:04:04;;;;;;;13.52;4.53;;;10.20;79.40;;;;;;4104337;28;20585;-84
2022/10/12 07:06:23;;;;;;;22.42;5.30;;;10.30;79.40;;;;;;4108444;28;20129;-84
2022/10/12 07:08:43;;;;;;;15.93;4.75;;;10.40;79.50;;;;;;4104517;28;20062;-83
2022/10/12 07:11:04;;;;;;;13.15;4.00;;;10.30;79.30;;;;;;4101795;28;20117;-82
2022/10/12 07:13:23;;;;;;;12.82;4.75;;;10.30;79.20;;;;;;4105169;28;20045;-83
2022/10/12 07:15:48;;;;;;;15.38;4.50;;;10.30;79.20;;;;;;4101391;28;20121;-83
2022/10/12 07:18:07;;;;;;;18.60;4.65;;;10.40;79.30;;;;;;4102220;28;20062;-83
2022/10/12 07:20:26;;;;;;;13.18;4.65;;;10.40;79.20;;;;;;4096606;28;20086;-83
2022/10/12 07:22:45;;;;;;;13.75;5.38;;;10.40;79.30;;;;;;4104339;28;20086;-84
2022/10/12 07:25:05;;;;;;;14.57;4.63;;;10.40;79.20;;;;;;4108527;28;20122;-85
2022/10/12 07:27:24;;;;;;;11.48;4.35;;;10.50;79.10;;;;;;4101391;28;20113;-84
2022/10/12 07:29:43;;;;;;;16.00;5.05;;;10.50;79.10;;;;;;4100251;28;20126;-85
2022/10/12 07:32:03;;;;;;;16.10;3.90;;;10.60;79.20;;;;;;4107706;28;20601;-82
2022/10/12 07:34:23;;;;;;;11.50;3.85;;;10.50;79.10;;;;;;4105338;28;20138;-85
2022/10/12 07:36:43;;;;;;;14.57;3.97;;;10.50;79.00;;;;;;4104307;28;20073;-85
2022/10/12 07:39:03;;;;;;;15.95;4.30;;;10.50;78.90;;;;;;4102606;28;20086;-84
2022/10/12 07:41:22;;;;;;;16.80;4.60;;;10.60;78.90;;;;;;4106096;28;20045;-84
2022/10/12 07:43:42;;;;;;;12.52;3.83;;;10.60;78.90;;;;;;4103532;28;20042;-85
2022/10/12 07:46:02;;;;;;;11.85;4.40;;;10.60;78.90;;;;;;4107419;28;20058;-84
2022/10/12 07:48:22;;;;;;;14.20;3.92;;;10.70;78.90;;;;;;4099313;28;20131;-85
2022/10/12 07:50:42;;;;;;;17.20;4.03;;;10.70;78.80;;;;;;4118171;28;21842;-85
2022/10/12 07:53:01;;;;;;;19.02;4.65;;;10.80;78.90;;;;;;4101540;28;20054;-84
2022/10/12 07:55:20;;;;;;;13.50;3.88;;;10.70;78.60;;;;;;4104236;28;20403;-85
2022/10/12 07:57:39;;;;;;;16.95;4.40;;;10.80;78.60;;;;;;4107605;28;20065;-85
2022/10/12 07:59:58;;;;;;;14.35;3.97;;;10.80;78.50;;;;;;4104343;28;20042;-85
2022/10/12 08:02:18;;;;;;;15.75;3.88;;;10.80;78.40;;;;;;4105396;28;20727;-85
2022/10/12 08:04:37;;;;;;;15.82;4.32;;;10.80;78.40;;;;;;4105795;28;20089;-85
2022/10/12 08:06:58;;;;;;;16.88;3.90;;;11.00;78.50;;;;;;4103194;28;20046;-85
2022/10/12 08:09:17;;;;;;;12.40;3.80;;;11.00;78.50;;;;;;4097522;28;20526;-85
2022/10/12 08:11:19;;;;;;;18.20;3.17;;;10.90;78.40;;;;;;4118021;28;20031;-84
2022/10/12 08:13:19;;;;;;;18.52;3.45;;;11.00;78.40;;;;;;4097357;28;20155;-85
2022/10/12 08:15:20;;;;;;;16.05;3.67;;;11.10;78.40;;;;;;4100898;28;20790;-85
2022/10/12 08:17:21;;;;;;;13.15;2.97;;;11.00;78.30;;;;;;4098860;28;20031;-84
2022/10/12 08:19:21;;;;;;;17.63;3.45;;;11.00;78.30;;;;;;4089915;28;20034;-85
2022/10/12 08:21:22;;;;;;;8.70;2.78;;;11.10;78.30;;;;;;4104356;28;20030;-85
2022/10/12 08:23:23;;;;;;;15.10;2.97;;;11.20;78.20;;;;;;4088803;28;20046;-85
2022/10/12 08:25:24;;;;;;;9.90;2.30;;;11.30;78.10;;;;;;4119201;28;20026;-85
2022/10/12 08:27:27;;;;;;;15.48;2.75;;;11.30;78.10;;;;;;4106220;28;20026;-85
2022/10/12 08:29:28;;;;;;;;;;;11.20;78.00;;;;;;4104701;28;20019;-84
2022/10/12 08:31:29;;;;;;;12.00;2.55;;;11.30;78.00;;;;;;4104283;28;20031;-85
2022/10/12 08:33:29;;;;;;;9.65;2.20;;;11.40;77.80;;;;;;4102494;28;20023;-85
2022/10/12 08:35:30;;;;;;;11.07;2.13;;;11.40;77.80;;;;;;4101202;28;20034;-86
2022/10/12 08:37:30;;;;;;;10.57;2.45;;;11.50;77.90;;;;;;4102066;28;20034;-85
2022/10/12 08:39:31;;;;;;;14.02;2.65;;;11.50;78.00;;;;;;4104911;28;20089;-85
2022/10/12 08:41:49;;;;;;;12.23;2.53;;;11.50;77.90;;;;;;4100653;28;20109;-85
2022/10/12 08:44:13;;;;;;;10.85;1.95;;;11.50;77.80;;;;;;4121624;28;20026;-84
2022/10/12 08:46:19;;;;;;;13.88;2.15;;;11.60;77.70;;;;;;4105853;28;20073;-84
2022/10/12 08:48:34;;;;;;;10.52;1.60;;;11.70;77.60;;;;;;4093123;28;20079;-83
2022/10/12 08:50:41;;;;;;;14.63;2.28;;;11.70;77.40;;;;;;4123888;28;20404;-85
2022/10/12 08:52:50;;;;;;;11.85;1.98;;;11.90;77.50;;;;;;4106875;28;20027;-84
2022/10/12 08:54:52;;;;;;;12.60;1.88;;;11.90;77.20;;;;;;4107690;28;20495;-85
2022/10/12 08:56:53;;;;;;;10.32;1.65;;;11.90;77.00;;;;;;4102518;28;20030;-84
2022/10/12 08:58:54;;;;;;;13.10;1.67;;;12.00;76.70;;;;;;4099340;28;20034;-85
2022/10/12 09:01:06;;;;;;;11.82;2.15;;;12.00;76.30;;;;;;4107112;28;20027;-85
2022/10/12 09:03:07;;;;;;;9.90;1.50;;;12.00;76.10;;;;;;4105500;28;20029;-85
2022/10/12 09:05:17;;;;;;;10.80;1.58;;;12.10;76.10;;;;;;4109564;28;20507;-85
2022/10/12 09:07:44;;;;;;;13.07;1.67;;;12.20;75.30;;;;;;4105432;28;20027;-85
2022/10/12 09:09:45;;;;;;;10.60;1.55;;;12.20;75.10;;;;;;4124476;28;20114;-85
2022/10/12 09:12:14;;;;;;;9.68;1.70;;;12.30;75.20;;;;;;4089314;28;20071;-85
2022/10/12 09:14:22;;;;;;;8.95;1.50;;;12.30;73.90;;;;;;4106304;28;20042;-85
2022/10/12 09:16:26;;;;;;;9.98;1.27;;;12.40;74.10;;;;;;4108815;28;20027;-85
2022/10/12 09:18:33;;;;;;;8.70;1.58;;;12.40;74.00;;;;;;4108520;28;20089;-85
2022/10/12 09:20:47;;;;;;;6.85;1.30;;;12.50;73.00;;;;;;4108598;28;20042;-85
2022/10/12 09:22:51;;;;;;;11.52;1.88;;;12.60;73.00;;;;;;4098864;28;20035;-85
2022/10/12 09:24:51;;;;;;;4.28;1.13;;;12.60;72.60;;;;;;4106132;28;20492;-85
2022/10/12 09:26:59;;;;;;;5.40;1.10;;;12.70;72.60;;;;;;4104730;28;20034;-85
2022/10/12 09:29:01;;;;;;;13.80;1.73;;;12.70;72.30;;;;;;4114925;28;20506;-85
2022/10/12 09:31:08;;;;;;;8.80;1.70;;;12.80;72.00;;;;;;4107837;28;20035;-84
2022/10/12 09:33:23;;;;;;;8.43;1.35;;;12.90;71.40;;;;;;4103418;28;20027;-85
2022/10/12 09:35:24;;;;;;;10.48;1.45;;;12.90;70.20;;;;;;4105987;28;20066;-85
2022/10/12 09:37:29;;;;;;;3.83;0.95;;;12.90;70.30;;;;;;4105319;28;20030;-85
2022/10/12 09:39:34;;;;;;;12.38;1.30;;;13.00;69.50;;;;;;4106703;28;20126;-86
2022/10/12 09:41:40;;;;;;;10.90;1.20;;;13.00;68.60;;;;;;4107466;28;20031;-84
2022/10/12 09:43:41;;;;;;;3.75;1.05;;;13.20;68.50;;;;;;4102670;28;20027;-85
2022/10/12 09:45:42;;;;;;;4.47;1.13;;;13.30;68.70;;;;;;4107179;28;20034;-85
2022/10/12 09:48:13;;;;;;;10.02;1.50;;;13.20;68.20;;;;;;4105551;28;20034;-85
2022/10/12 09:50:43;;;;;;;9.32;1.42;;;13.30;67.90;;;;;;4104156;28;20023;-85
2022/10/12 09:52:44;;;;;;;9.95;1.73;;;13.40;68.10;;;;;;4107088;28;20039;-86
2022/10/12 09:54:51;;;;;;;6.47;1.17;;;13.60;68.70;;;;;;4104718;28;20077;-85
2022/10/12 09:56:54;;;;;;;9.07;1.58;;;13.50;68.30;;;;;;4104128;28;20035;-85
2022/10/12 09:59:04;;;;;;;11.52;1.27;;;13.60;68.10;;;;;;4102799;28;20030;-85
2022/10/12 10:01:22;;;;;;;10.13;1.65;;;13.70;67.20;;;;;;4106395;28;20081;-85
2022/10/12 10:03:23;;;;;;;15.00;1.83;;;13.80;66.70;;;;;;4105141;28;20031;-84
2022/10/12 10:05:36;;;;;;;12.50;1.40;;;14.00;67.20;;;;;;4106708;28;20045;-84
2022/10/12 10:07:37;;;;;;;8.73;1.45;;;14.00;65.90;;;;;;4106990;28;20118;-83
2022/10/12 10:09:37;;;;;;;10.98;1.40;;;14.10;65.90;;;;;;4106072;28;20054;-84
2022/10/12 10:11:38;;;;;;;8.43;1.50;;;14.10;66.00;;;;;;4130555;28;20041;-84
2022/10/12 10:13:46;;;;;;;9.95;1.60;;;14.20;65.50;;;;;;4106330;28;20429;-85
2022/10/12 10:15:50;;;;;;;7.22;1.30;;;14.30;65.30;;;;;;4104405;28;20035;-84
2022/10/12 10:17:54;;;;;;;13.38;1.90;;;14.30;64.70;;;;;;4121886;28;20343;-85
2022/10/12 10:19:57;;;;;;;11.10;1.70;;;14.40;64.10;;;;;;4123557;28;20050;-85
2022/10/12 10:22:05;;;;;;;12.65;1.45;;;14.50;63.70;;;;;;4104980;28;20109;-85
2022/10/12 10:24:19;;;;;;;10.02;1.35;;;14.50;62.80;;;;;;4105294;28;20117;-85
2022/10/12 10:26:20;;;;;;;;;;;14.60;63.50;;;;;;4105252;28;20090;-86
2022/10/12 10:28:22;;;;;;;10.50;1.52;;;14.60;62.80;;;;;;4105885;28;19914;-85
2022/10/12 10:30:24;;;;;;;8.15;1.63;;;14.70;63.80;;;;;;4086620;28;20046;-85
2022/10/12 10:32:28;;;;;;;19.23;1.98;;;14.70;63.40;;;;;;4104142;28;20030;-85
2022/10/12 10:34:29;;;;;;;9.40;1.70;;;14.90;63.20;;;;;;4118299;28;20490;-85
2022/10/12 10:36:32;;;;;;;9.63;1.52;;;14.90;62.90;;;;;;4106172;28;20026;-86
2022/10/12 10:38:57;;;;;;;8.18;1.67;;;14.90;62.30;;;;;;4106135;28;20236;-86
2022/10/12 10:41:01;;;;;;;12.25;1.45;;;14.90;61.00;;;;;;4115838;28;20038;-85
2022/10/12 10:43:03;;;;;;;;;;;15.00;61.80;;;;;;4101471;28;20046;-86
2022/10/12 10:45:07;;;;;;;10.05;1.63;;;15.00;60.90;;;;;;4104919;28;19910;-86
2022/10/12 10:47:12;;;;;;;18.92;2.00;;;15.00;62.00;;;;;;4102730;28;20034;-85
2022/10/12 10:49:25;;;;;;;11.55;1.85;;;15.00;61.60;;;;;;4120002;28;20211;-85
2022/10/12 10:51:48;;;;;;;10.13;1.92;;;15.10;60.80;;;;;;4105411;28;20042;-85
2022/10/12 10:53:50;;;;;;;12.07;2.22;;;15.10;59.40;;;;;;4085045;28;20034;-85
2022/10/12 10:55:56;;;;;;;14.80;1.90;;;15.10;59.90;;;;;;4106432;28;20042;-86
2022/10/12 10:58:10;;;;;;;12.02;2.05;;;15.10;59.50;;;;;;4107919;28;20061;-86
2022/10/12 11:00:14;;;;;;;13.70;2.42;;;15.10;59.40;;;;;;4101481;28;20059;-86
2022/10/12 11:02:18;;;;;;;8.25;1.98;;;15.10;59.20;;;;;;4099801;28;20022;-86
2022/10/12 11:04:28;;;;;;;;;;;15.20;59.00;;;;;;4103795;28;20518;-85
2022/10/12 11:06:39;;;;;;;14.25;1.90;;;15.10;58.80;;;;;;4106743;28;19914;-86
2022/10/12 11:08:42;;;;;;;12.95;2.25;;;15.20;59.00;;;;;;4089542;28;20041;-85
2022/10/12 11:11:02;;;;;;;10.73;1.95;;;15.10;59.00;;;;;;4100352;28;20039;-85
2022/10/12 11:13:16;;;;;;;16.80;2.35;;;15.10;58.50;;;;;;4101020;28;20101;-86
2022/10/12 11:15:34;;;;;;;12.55;2.40;;;15.20;58.90;;;;;;4091005;28;20038;-85
2022/10/12 11:17:42;;;;;;;8.27;1.60;;;15.20;58.60;;;;;;4102398;28;20030;-85
2022/10/12 11:19:57;;;;;;;11.05;2.33;;;15.20;58.70;;;;;;4102013;28;20096;-88
2022/10/12 11:22:04;;;;;;;14.50;2.53;;;15.20;58.10;;;;;;4106676;28;20027;-87
2022/10/12 11:24:28;;;;;;;12.23;2.10;;;15.20;58.00;;;;;;4107527;28;20617;-87
2022/10/12 11:27:00;;;;;;;14.80;2.83;;;15.20;57.30;;;;;;4104789;28;20074;-87
2022/10/12 11:29:00;;;;;;;13.65;2.40;;;15.20;57.10;;;;;;4107233;28;20105;-88
2022/10/12 11:31:03;;;;;;;11.23;2.28;;;15.20;57.40;;;;;;4099425;28;20039;-87
2022/10/12 11:33:17;;;;;;;6.13;2.00;;;15.30;57.40;;;;;;4107142;28;20089;-86
2022/10/12 11:35:41;;;;;;;10.25;2.20;;;15.20;57.20;;;;;;4105265;28;20023;-85
2022/10/12 11:37:46;;;;;;;13.27;2.13;;;15.20;57.10;;;;;;4110515;28;20031;-86
2022/10/12 11:39:52;;;;;;;11.48;1.90;;;15.20;57.60;;;;;;4085893;28;20027;-85
2022/10/12 11:41:55;;;;;;;9.90;2.08;;;15.20;58.40;;;;;;4106657;28;20614;-84
2022/10/12 11:44:26;;;;;;;12.93;2.75;;;15.30;58.10;;;;;;4105929;28;20037;-87
2022/10/12 11:46:47;;;;;;;11.35;2.20;;;15.30;58.00;;;;;;4106017;28;20073;-84
2022/10/12 11:48:53;;;;;;;11.10;2.47;;;15.30;56.40;;;;;;4108519;28;20097;-84
2022/10/12 11:50:56;;;;;;;11.73;2.10;;;15.40;57.20;;;;;;4104651;28;20078;-84
2022/10/12 11:53:00;;;;;;;8.23;2.20;;;15.40;56.90;;;;;;4108220;28;20023;-84
2022/10/12 11:55:03;;;;;;;16.25;2.30;;;15.40;56.70;;;;;;4109277;28;20598;-84